Time;durP1;ratioP1;P1;durP2;ratioP2;P2;SDS_P1;SDS_P2;PMS_P1;PMS_P2;Temp;Humidity;BMP_temperature;BMP_pressure;BME280_temperature;BME280_humidity;BME280_pressure;Samples;Min_cycle;Max_cycle;Signal;HPM_P1;HPM_P2
2023/05/10 00:00:02;;;;;;;9.10;7.88;;;10.90;1.00;;;;;;5092425;28;20032;-57
2023/05/10 00:02:27;;;;;;;11.52;7.75;;;10.90;1.00;;;;;;5092096;28;20471;-58
2023/05/10 00:04:54;;;;;;;8.23;7.25;;;11.00;1.00;;;;;;5092690;28;20030;-56
2023/05/10 00:07:19;;;;;;;13.18;7.05;;;10.90;1.00;;;;;;5092406;28;20052;-59
2023/05/10 00:09:45;;;;;;;8.07;7.28;;;11.00;1.00;;;;;;5092303;28;20079;-58
2023/05/10 00:12:11;;;;;;;9.68;7.25;;;11.00;1.00;;;;;;5092375;28;20027;-58
2023/05/10 00:14:36;;;;;;;10.20;7.13;;;11.00;1.00;;;;;;5092091;28;20110;-58
2023/05/10 00:17:02;;;;;;;12.10;7.75;;;10.90;1.00;;;;;;5074137;28;20103;-56
2023/05/10 00:19:28;;;;;;;13.20;7.78;;;11.00;1.00;;;;;;5092036;28;20112;-58
2023/05/10 00:21:53;;;;;;;12.23;8.60;;;10.80;1.00;;;;;;5092101;28;20441;-58
2023/05/10 00:24:19;;;;;;;8.55;7.75;;;10.80;1.00;;;;;;5092175;28;20379;-56
2023/05/10 00:26:44;;;;;;;11.25;8.25;;;10.70;1.00;;;;;;5091855;28;20055;-56
2023/05/10 00:29:10;;;;;;;16.60;7.47;;;10.60;1.70;;;;;;5073723;28;20025;-58
2023/05/10 00:31:36;;;;;;;9.40;7.95;;;10.60;8.20;;;;;;5073603;28;20021;-57
2023/05/10 00:34:01;;;;;;;9.68;8.68;;;10.60;1.00;;;;;;5091886;28;20032;-55
2023/05/10 00:36:27;;;;;;;17.23;8.80;;;10.40;10.60;;;;;;5091577;28;20020;-57
2023/05/10 00:38:53;;;;;;;12.80;7.88;;;10.40;11.70;;;;;;5091627;28;20495;-55
2023/05/10 00:41:20;;;;;;;14.13;7.95;;;10.40;3.90;;;;;;5091945;28;20024;-57
2023/05/10 00:43:46;;;;;;;14.80;7.97;;;10.40;8.70;;;;;;5091380;28;20368;-57
2023/05/10 00:46:13;;;;;;;12.10;7.57;;;10.30;18.10;;;;;;5091476;28;20054;-55
2023/05/10 00:48:39;;;;;;;12.43;8.05;;;10.30;10.10;;;;;;5091526;28;20039;-55
2023/05/10 00:51:06;;;;;;;8.82;7.95;;;10.20;17.70;;;;;;5091821;28;20028;-57
2023/05/10 00:53:32;;;;;;;20.65;9.68;;;10.20;24.90;;;;;;5091520;28;20387;-56
2023/05/10 00:55:59;;;;;;;9.60;8.38;;;10.20;23.10;;;;;;5091547;28;20028;-57
2023/05/10 00:58:28;;;;;;;8.88;7.97;;;10.10;28.30;;;;;;5091293;28;20024;-58
2023/05/10 01:00:56;;;;;;;12.05;8.07;;;10.00;34.80;;;;;;5091310;28;20051;-58
2023/05/10 01:03:21;;;;;;;12.48;7.93;;;9.90;41.20;;;;;;5091438;28;20024;-59
2023/05/10 01:05:47;;;;;;;11.00;8.77;;;9.80;47.00;;;;;;5091142;28;20012;-53
2023/05/10 01:08:13;;;;;;;10.55;8.88;;;9.80;47.00;;;;;;5091231;28;20103;-58
2023/05/10 01:10:39;;;;;;;9.02;7.72;;;9.80;44.80;;;;;;5072813;28;20032;-58
2023/05/10 01:13:05;;;;;;;9.48;8.35;;;9.70;50.50;;;;;;5091044;28;20028;-56
2023/05/10 01:15:31;;;;;;;9.15;8.25;;;9.70;54.70;;;;;;5091021;28;20024;-58
2023/05/10 01:17:57;;;;;;;10.50;9.40;;;9.80;49.20;;;;;;5091082;28;20024;-57
2023/05/10 01:20:24;;;;;;;12.68;8.38;;;9.70;59.40;;;;;;5090851;28;20038;-57
2023/05/10 01:23:01;;;;;;;9.60;8.10;;;9.70;62.20;;;;;;5091001;28;20031;-55
2023/05/10 01:26:01;;;;;;;12.27;8.35;;;9.80;57.80;;;;;;5090766;28;20044;-57
2023/05/10 01:28:38;;;;;;;14.20;8.65;;;9.80;61.80;;;;;;5090619;28;20050;-55
2023/05/10 01:31:13;;;;;;;9.82;8.32;;;9.80;66.30;;;;;;5090677;28;20119;-56
2023/05/10 01:33:47;;;;;;;10.05;8.40;;;9.90;66.80;;;;;;5090372;28;20103;-58
2023/05/10 01:36:25;;;;;;;12.38;9.10;;;10.00;53.90;;;;;;5072417;28;20034;-57
2023/05/10 01:39:07;;;;;;;11.27;8.27;;;10.10;55.20;;;;;;5090640;28;20487;-57
2023/05/10 01:41:45;;;;;;;12.02;9.50;;;10.10;46.40;;;;;;5090683;28;20027;-58
2023/05/10 01:44:20;;;;;;;15.23;9.25;;;10.20;58.20;;;;;;5090956;28;20024;-57
2023/05/10 01:46:53;;;;;;;11.23;8.15;;;10.30;56.50;;;;;;5090545;28;20020;-58
2023/05/10 01:49:34;;;;;;;14.27;8.73;;;10.40;51.50;;;;;;5090789;28;20020;-58
2023/05/10 01:52:08;;;;;;;8.85;8.00;;;10.50;55.00;;;;;;5090539;28;20028;-57
2023/05/10 01:54:35;;;;;;;12.52;8.40;;;10.50;49.60;;;;;;5072241;28;20023;-58
2023/05/10 01:57:07;;;;;;;10.80;9.48;;;10.50;54.70;;;;;;5090460;28;20024;-58
2023/05/10 01:59:40;;;;;;;10.13;8.40;;;10.50;59.10;;;;;;5072457;28;20475;-58
2023/05/10 02:02:07;;;;;;;10.63;8.02;;;10.50;49.40;;;;;;5090532;28;20301;-55
2023/05/10 02:04:37;;;;;;;11.07;9.38;;;10.60;49.30;;;;;;5090246;28;20056;-58
2023/05/10 02:07:03;;;;;;;18.08;9.77;;;10.70;33.50;;;;;;5090506;28;20032;-55
2023/05/10 02:09:31;;;;;;;12.85;8.93;;;10.70;28.50;;;;;;5090088;28;20124;-56
2023/05/10 02:11:59;;;;;;;13.05;8.65;;;10.70;25.10;;;;;;5090327;28;20086;-58
2023/05/10 02:14:26;;;;;;;13.38;9.65;;;10.70;41.40;;;;;;5090255;28;20031;-55
2023/05/10 02:16:55;;;;;;;13.77;8.35;;;10.70;27.10;;;;;;5090169;28;20074;-56
2023/05/10 02:19:23;;;;;;;11.93;9.02;;;10.70;39.30;;;;;;5090452;28;20012;-57
2023/05/10 02:21:51;;;;;;;12.57;9.45;;;10.80;25.30;;;;;;5089889;28;20016;-55
2023/05/10 02:24:17;;;;;;;15.55;9.60;;;10.90;22.70;;;;;;5090179;28;20017;-56
2023/05/10 02:26:45;;;;;;;12.98;9.73;;;10.90;22.90;;;;;;5090246;28;20308;-57
2023/05/10 02:29:13;;;;;;;12.23;9.75;;;10.90;25.50;;;;;;5090247;28;20419;-54
2023/05/10 02:31:43;;;;;;;10.90;9.48;;;10.90;42.20;;;;;;5090146;28;20383;-56
2023/05/10 02:34:10;;;;;;;12.90;8.85;;;11.00;39.10;;;;;;5090236;28;20450;-57
2023/05/10 02:36:37;;;;;;;12.65;9.30;;;11.00;40.90;;;;;;5089784;28;20060;-58
2023/05/10 02:39:04;;;;;;;14.45;10.02;;;10.90;34.60;;;;;;5089803;28;20048;-58
2023/05/10 02:41:32;;;;;;;13.55;9.70;;;11.00;50.20;;;;;;5089775;28;20494;-58
2023/05/10 02:44:02;;;;;;;12.45;8.70;;;11.00;24.10;;;;;;5090040;28;20033;-53
2023/05/10 02:46:28;;;;;;;13.32;9.65;;;11.00;23.70;;;;;;5090885;28;20016;-55
2023/05/10 02:48:54;;;;;;;12.57;9.10;;;11.00;34.80;;;;;;5094460;28;20440;-55
2023/05/10 02:51:24;;;;;;;14.00;9.38;;;10.90;36.70;;;;;;5076002;28;20576;-56
2023/05/10 02:53:52;;;;;;;14.30;9.27;;;10.90;43.30;;;;;;5075832;28;20031;-59
2023/05/10 02:56:28;;;;;;;12.48;9.57;;;10.80;50.30;;;;;;5093737;28;20032;-59
2023/05/10 02:58:54;;;;;;;12.43;10.50;;;10.80;47.00;;;;;;5075566;28;20055;-57
2023/05/10 03:01:20;;;;;;;10.15;9.00;;;10.90;54.40;;;;;;5093656;28;20039;-58
2023/05/10 03:03:46;;;;;;;16.27;9.23;;;10.90;46.40;;;;;;5093508;28;20633;-57
2023/05/10 03:06:11;;;;;;;9.88;8.35;;;11.00;35.00;;;;;;5093657;28;20070;-56
2023/05/10 03:08:37;;;;;;;11.70;8.55;;;11.00;48.50;;;;;;5075352;28;20024;-58
2023/05/10 03:11:39;;;;;;;12.15;9.07;;;11.00;53.20;;;;;;5093629;28;20012;-56
2023/05/10 03:14:24;;;;;;;11.38;9.13;;;11.10;34.30;;;;;;5093356;28;20276;-55
2023/05/10 03:17:00;;;;;;;10.95;9.63;;;11.10;31.20;;;;;;5093288;28;20028;-57
2023/05/10 03:19:54;;;;;;;11.57;8.82;;;11.20;22.10;;;;;;5093164;28;20028;-59
2023/05/10 03:22:47;;;;;;;11.18;9.52;;;11.30;32.30;;;;;;5075167;28;20032;-54
2023/05/10 03:25:16;;;;;;;9.90;8.30;;;11.40;31.30;;;;;;5093271;28;20042;-57
2023/05/10 03:27:43;;;;;;;13.48;8.75;;;11.50;33.30;;;;;;5074991;28;20077;-57
2023/05/10 03:30:12;;;;;;;12.55;9.20;;;11.40;30.20;;;;;;5093123;28;20016;-57
2023/05/10 03:32:38;;;;;;;13.93;8.90;;;11.40;30.00;;;;;;5092812;28;20048;-59
2023/05/10 03:35:08;;;;;;;14.18;9.60;;;11.40;32.90;;;;;;5092908;28;20085;-57
2023/05/10 03:37:34;;;;;;;12.60;10.20;;;11.50;31.20;;;;;;5074886;28;20030;-58
2023/05/10 03:40:00;;;;;;;15.35;9.70;;;11.50;27.40;;;;;;5092610;28;20044;-58
2023/05/10 03:42:25;;;;;;;11.25;9.38;;;11.50;26.50;;;;;;5092756;28;20521;-55
2023/05/10 03:44:51;;;;;;;10.13;8.73;;;11.50;26.70;;;;;;5092641;28;20055;-58
2023/05/10 03:47:17;;;;;;;10.98;9.15;;;11.60;43.50;;;;;;5092665;28;20019;-57
2023/05/10 03:49:42;;;;;;;12.40;9.05;;;11.60;30.10;;;;;;5092795;28;20028;-55
2023/05/10 03:52:08;;;;;;;19.13;8.70;;;11.50;37.30;;;;;;5092816;28;20170;-56
2023/05/10 03:54:34;;;;;;;12.63;9.27;;;11.50;36.10;;;;;;5092547;28;20387;-56
2023/05/10 03:57:00;;;;;;;9.88;8.88;;;11.60;42.10;;;;;;5092191;28;20024;-55
2023/05/10 03:59:26;;;;;;;13.00;8.23;;;11.60;49.80;;;;;;5074400;28;20028;-55
2023/05/10 04:01:52;;;;;;;11.32;8.82;;;11.70;58.20;;;;;;5092377;28;20016;-58
2023/05/10 04:04:18;;;;;;;12.55;8.57;;;11.80;64.60;;;;;;5092467;28;20039;-58
2023/05/10 04:06:44;;;;;;;9.43;8.45;;;11.80;66.40;;;;;;5092367;28;20013;-55
2023/05/10 04:09:10;;;;;;;9.07;7.28;;;11.90;65.60;;;;;;5092309;28;20024;-57
2023/05/10 04:11:36;;;;;;;8.38;7.07;;;12.10;83.30;;;;;;5092167;28;20035;-57
2023/05/10 04:14:02;;;;;;;9.40;7.35;;;12.20;87.10;;;;;;5092293;28;20428;-53
2023/05/10 04:16:27;;;;;;;9.27;7.50;;;12.30;90.30;;;;;;5092192;28;20060;-57
2023/05/10 04:18:53;;;;;;;12.07;7.53;;;12.40;90.20;;;;;;5092330;28;20020;-57
2023/05/10 04:21:20;;;;;;;7.05;6.35;;;12.40;92.60;;;;;;5092282;28;20031;-56
2023/05/10 04:23:45;;;;;;;9.40;6.30;;;12.50;92.90;;;;;;5091935;28;20024;-56
2023/05/10 04:26:11;;;;;;;17.05;6.63;;;12.60;92.20;;;;;;5092073;28;20024;-57
2023/05/10 04:28:37;;;;;;;7.25;6.50;;;12.60;91.70;;;;;;5091756;28;20009;-53
2023/05/10 04:31:07;;;;;;;7.65;6.55;;;12.60;93.40;;;;;;5091907;28;20236;-54
2023/05/10 04:33:33;;;;;;;5.28;4.78;;;12.70;94.30;;;;;;5073378;28;20056;-57
2023/05/10 04:35:59;;;;;;;5.72;4.88;;;12.90;95.10;;;;;;5092058;28;20036;-53
2023/05/10 04:38:25;;;;;;;6.38;5.13;;;13.00;94.30;;;;;;5091661;28;20536;-56
2023/05/10 04:40:51;;;;;;;8.15;5.22;;;13.00;93.60;;;;;;5091546;28;20032;-55
2023/05/10 04:43:16;;;;;;;6.35;5.75;;;13.00;92.30;;;;;;5092013;28;20020;-54
2023/05/10 04:45:42;;;;;;;7.82;5.72;;;13.00;93.20;;;;;;5091722;28;20498;-58
2023/05/10 04:48:07;;;;;;;5.72;5.13;;;13.00;93.40;;;;;;5091527;28;20044;-54
2023/05/10 04:50:33;;;;;;;7.97;5.30;;;13.10;93.00;;;;;;5073743;28;20483;-55
2023/05/10 04:52:59;;;;;;;5.18;4.72;;;13.10;92.90;;;;;;5091605;28;20468;-52
2023/05/10 04:55:26;;;;;;;7.18;5.68;;;13.10;92.10;;;;;;5091345;28;20108;-55
2023/05/10 04:57:52;;;;;;;6.45;5.82;;;13.10;91.50;;;;;;5091428;28;20016;-56
2023/05/10 05:00:18;;;;;;;7.80;5.32;;;13.10;90.50;;;;;;5091335;28;20051;-56
2023/05/10 05:02:47;;;;;;;5.75;4.40;;;13.20;90.30;;;;;;5091306;28;20020;-58
2023/05/10 05:05:14;;;;;;;6.70;5.07;;;13.20;88.60;;;;;;5091328;28;20020;-58
2023/05/10 05:07:40;;;;;;;6.22;4.88;;;13.20;89.10;;;;;;5090990;28;20095;-57
2023/05/10 05:10:07;;;;;;;6.63;4.97;;;13.20;88.70;;;;;;5090433;28;20095;-57
2023/05/10 05:12:32;;;;;;;6.30;4.95;;;13.20;88.40;;;;;;5090942;28;20434;-58
2023/05/10 05:14:58;;;;;;;6.28;5.13;;;13.20;88.50;;;;;;5090745;28;20024;-52
2023/05/10 05:17:24;;;;;;;6.78;5.20;;;13.20;87.80;;;;;;5091053;28;20059;-56
2023/05/10 05:19:49;;;;;;;5.28;4.22;;;13.20;86.30;;;;;;5091210;28;20023;-58
2023/05/10 05:22:15;;;;;;;6.85;4.40;;;13.30;87.10;;;;;;5090938;28;20016;-58
2023/05/10 05:24:41;;;;;;;4.90;4.40;;;13.40;89.50;;;;;;5090905;28;20478;-59
2023/05/10 05:27:07;;;;;;;4.10;3.70;;;13.40;86.20;;;;;;5090912;28;20533;-57
2023/05/10 05:29:33;;;;;;;4.93;4.03;;;13.50;85.10;;;;;;5090618;28;20042;-58
2023/05/10 05:31:58;;;;;;;3.63;3.33;;;13.50;86.70;;;;;;5090882;28;20016;-55
2023/05/10 05:34:25;;;;;;;4.43;3.80;;;13.60;88.10;;;;;;5090966;28;20016;-57
2023/05/10 05:36:50;;;;;;;4.95;3.65;;;13.70;89.80;;;;;;5090721;28;20379;-58
2023/05/10 05:39:16;;;;;;;2.80;2.60;;;13.70;90.00;;;;;;5090468;28;20119;-57
2023/05/10 05:41:42;;;;;;;4.38;2.97;;;13.90;88.80;;;;;;5090521;28;20270;-57
2023/05/10 05:44:08;;;;;;;2.17;1.98;;;13.90;86.10;;;;;;5090654;28;20016;-57
2023/05/10 05:46:33;;;;;;;2.90;2.60;;;14.00;84.70;;;;;;5090449;28;20016;-57
2023/05/10 05:48:59;;;;;;;2.35;2.20;;;14.10;86.20;;;;;;5090592;28;20069;-58
2023/05/10 05:51:25;;;;;;;2.60;2.40;;;14.20;84.60;;;;;;5090442;28;20103;-58
2023/05/10 05:53:50;;;;;;;2.10;1.90;;;14.30;87.30;;;;;;5090571;28;20497;-54
2023/05/10 05:56:17;;;;;;;3.58;2.45;;;14.30;82.00;;;;;;5090458;28;20028;-57
2023/05/10 05:58:44;;;;;;;3.22;2.95;;;14.40;81.20;;;;;;5090342;28;20107;-58
2023/05/10 06:01:10;;;;;;;3.88;2.70;;;14.40;75.40;;;;;;5090463;28;20026;-57
2023/05/10 06:03:35;;;;;;;3.25;2.42;;;14.40;79.80;;;;;;5090396;28;20016;-58
2023/05/10 06:06:01;;;;;;;4.80;3.38;;;14.40;77.80;;;;;;5090378;28;20471;-56
2023/05/10 06:08:27;;;;;;;2.13;1.90;;;14.40;75.50;;;;;;5090660;28;20337;-54
2023/05/10 06:10:52;;;;;;;2.33;2.00;;;14.40;72.70;;;;;;5090347;28;20028;-56
2023/05/10 06:13:18;;;;;;;2.08;1.85;;;14.40;76.50;;;;;;5090323;28;20028;-57
2023/05/10 06:15:44;;;;;;;1.38;1.27;;;14.50;72.90;;;;;;5090096;28;20032;-58
2023/05/10 06:18:10;;;;;;;3.67;1.70;;;14.40;75.40;;;;;;5072390;28;20024;-57
2023/05/10 06:20:35;;;;;;;1.25;1.17;;;14.60;75.60;;;;;;5091298;28;20123;-58
2023/05/10 06:23:01;;;;;;;3.05;1.30;;;14.60;66.10;;;;;;5094374;28;20103;-57
2023/05/10 06:25:27;;;;;;;1.15;1.02;;;14.70;76.70;;;;;;5094354;28;20095;-55
2023/05/10 06:27:56;;;;;;;0.82;0.82;;;14.70;68.00;;;;;;5094324;28;20024;-59
2023/05/10 06:30:27;;;;;;;13.07;1.77;;;14.70;71.10;;;;;;5093976;28;20024;-59
2023/05/10 06:32:53;;;;;;;31.83;16.02;;;14.70;70.00;;;;;;5094252;28;20042;-59
2023/05/10 06:35:19;;;;;;;6.22;3.47;;;14.40;74.80;;;;;;5094227;28;20020;-58
2023/05/10 06:37:44;;;;;;;1.35;1.25;;;14.70;77.50;;;;;;5094061;28;20028;-59
2023/05/10 06:40:10;;;;;;;3.83;1.42;;;14.70;65.70;;;;;;5075503;28;20036;-59
2023/05/10 06:42:36;;;;;;;1.05;1.05;;;14.70;68.10;;;;;;5093855;28;20035;-56
2023/05/10 06:45:02;;;;;;;2.33;1.08;;;14.90;75.20;;;;;;5094013;28;20085;-58
2023/05/10 06:47:27;;;;;;;1.10;1.10;;;15.00;58.80;;;;;;5075676;28;20025;-59
2023/05/10 06:49:53;;;;;;;4.32;0.98;;;15.10;63.50;;;;;;5093970;28;20020;-58
2023/05/10 06:52:19;;;;;;;1.02;1.02;;;15.00;49.70;;;;;;5075949;28;20313;-59
2023/05/10 06:54:44;;;;;;;4.07;1.48;;;14.90;54.60;;;;;;5075363;28;20028;-58
2023/05/10 06:57:10;;;;;;;1.08;0.98;;;14.80;59.40;;;;;;5075452;28;20047;-59
2023/05/10 06:59:36;;;;;;;1.05;0.95;;;15.00;60.70;;;;;;5093481;28;20024;-59
2023/05/10 07:02:02;;;;;;;1.98;1.55;;;15.10;53.10;;;;;;5094142;28;20482;-58
2023/05/10 07:04:27;;;;;;;1.73;1.05;;;14.80;65.60;;;;;;5075013;28;20024;-60
2023/05/10 07:06:53;;;;;;;1.13;1.02;;;14.80;70.70;;;;;;5093401;28;20016;-55
2023/05/10 07:09:19;;;;;;;2.13;1.90;;;14.80;64.50;;;;;;5075030;28;20482;-57
2023/05/10 07:11:45;;;;;;;0.93;0.93;;;14.70;72.20;;;;;;5093453;28;20412;-57
2023/05/10 07:14:10;;;;;;;1.08;1.08;;;14.80;78.70;;;;;;5093261;28;20379;-59
2023/05/10 07:16:36;;;;;;;2.90;1.98;;;14.90;73.60;;;;;;5093565;28;20024;-55
2023/05/10 07:19:02;;;;;;;1.20;1.10;;;15.00;81.80;;;;;;5093475;28;20063;-58
2023/05/10 07:21:28;;;;;;;1.50;1.40;;;14.90;82.70;;;;;;5074891;28;20035;-59
2023/05/10 07:23:54;;;;;;;4.38;3.13;;;15.00;57.70;;;;;;5093178;28;20115;-59
2023/05/10 07:26:20;;;;;;;3.63;2.85;;;14.90;35.80;;;;;;5093160;28;20099;-57
2023/05/10 07:28:46;;;;;;;3.35;3.05;;;14.80;42.80;;;;;;5092813;28;20082;-58
2023/05/10 07:31:12;;;;;;;4.70;3.60;;;14.70;54.70;;;;;;5093166;28;20121;-59
2023/05/10 07:33:38;;;;;;;6.65;3.03;;;14.50;52.30;;;;;;5091948;28;20499;-52
2023/05/10 07:36:04;;;;;;;4.55;3.00;;;14.50;62.40;;;;;;5092909;28;20467;-58
2023/05/10 07:38:29;;;;;;;8.38;3.13;;;14.60;65.10;;;;;;5092545;28;20020;-58
2023/05/10 07:40:55;;;;;;;3.55;3.13;;;14.70;62.60;;;;;;5093006;28;20106;-56
2023/05/10 07:43:20;;;;;;;4.00;2.45;;;14.80;54.50;;;;;;5092489;28;20165;-57
2023/05/10 07:45:46;;;;;;;4.20;3.53;;;14.90;49.20;;;;;;5092120;28;20050;-58
2023/05/10 07:48:12;;;;;;;4.22;2.78;;;15.00;54.10;;;;;;5092306;28;20485;-54
2023/05/10 07:50:37;;;;;;;3.35;2.83;;;15.10;48.80;;;;;;5092408;28;20031;-57
2023/05/10 07:53:03;;;;;;;3.13;2.67;;;15.30;57.00;;;;;;5092867;28;20236;-59
2023/05/10 07:55:28;;;;;;;5.18;2.88;;;15.40;36.90;;;;;;5092630;28;20093;-59
2023/05/10 07:57:54;;;;;;;3.00;2.70;;;15.50;36.10;;;;;;5092609;28;20016;-58
2023/05/10 08:00:20;;;;;;;3.17;2.80;;;15.60;42.90;;;;;;5092735;28;20113;-59
2023/05/10 08:02:47;;;;;;;3.58;3.25;;;15.60;41.60;;;;;;5092440;28;20024;-57
2023/05/10 08:05:13;;;;;;;3.38;2.80;;;15.60;40.30;;;;;;5092489;28;20020;-57
2023/05/10 08:07:39;;;;;;;5.47;2.80;;;15.40;38.00;;;;;;5092033;28;20025;-55
2023/05/10 08:10:05;;;;;;;3.08;2.72;;;15.20;30.10;;;;;;5092443;28;20350;-58
2023/05/10 08:12:31;;;;;;;4.65;3.60;;;14.90;38.90;;;;;;5092405;28;20040;-56
2023/05/10 08:14:57;;;;;;;3.88;2.88;;;14.80;50.60;;;;;;5092250;28;20030;-57
2023/05/10 08:17:22;;;;;;;3.28;2.97;;;14.60;51.80;;;;;;5092181;28;20024;-57
2023/05/10 08:19:48;;;;;;;3.58;3.08;;;14.60;58.80;;;;;;5091883;28;20028;-58
2023/05/10 08:22:13;;;;;;;4.57;3.40;;;14.70;60.30;;;;;;5091659;28;20054;-59
2023/05/10 08:24:41;;;;;;;4.53;3.60;;;14.60;61.10;;;;;;5090847;28;20024;-58
2023/05/10 08:27:08;;;;;;;4.93;3.38;;;14.50;58.50;;;;;;5092164;28;20122;-58
2023/05/10 08:29:34;;;;;;;3.97;3.38;;;14.40;62.20;;;;;;5091890;28;20024;-58
2023/05/10 08:32:00;;;;;;;4.53;3.75;;;14.30;66.30;;;;;;5092052;28;20016;-55
2023/05/10 08:34:26;;;;;;;4.55;3.35;;;14.20;61.60;;;;;;5091719;28;20024;-59
2023/05/10 08:36:52;;;;;;;10.20;5.55;;;14.20;65.90;;;;;;5092235;28;20024;-58
2023/05/10 08:39:18;;;;;;;4.22;3.60;;;14.20;70.20;;;;;;5091602;28;20047;-58
2023/05/10 08:41:46;;;;;;;5.63;3.47;;;14.10;64.60;;;;;;5091585;28;20369;-59
2023/05/10 08:44:16;;;;;;;3.55;3.25;;;14.10;68.50;;;;;;5091748;28;20301;-58
2023/05/10 08:46:46;;;;;;;4.80;4.30;;;14.20;66.20;;;;;;5091539;28;20016;-57
2023/05/10 08:49:14;;;;;;;3.92;3.47;;;14.20;66.00;;;;;;5091737;28;20368;-57
2023/05/10 08:51:43;;;;;;;3.90;3.58;;;14.20;54.30;;;;;;5091498;28;20024;-58
2023/05/10 08:54:09;;;;;;;7.80;4.18;;;14.20;60.80;;;;;;5091968;28;20039;-58
2023/05/10 08:56:34;;;;;;;4.40;4.00;;;14.30;64.00;;;;;;5091344;28;20521;-59
2023/05/10 08:59:00;;;;;;;6.00;3.70;;;14.10;61.70;;;;;;5091484;28;20106;-57
2023/05/10 09:01:27;;;;;;;4.72;3.70;;;14.10;62.00;;;;;;5091411;28;20111;-58
2023/05/10 09:03:53;;;;;;;4.03;3.40;;;14.00;59.40;;;;;;5091108;28;20036;-57
2023/05/10 09:06:19;;;;;;;6.82;4.50;;;14.00;69.70;;;;;;5091589;28;20093;-58
2023/05/10 09:08:45;;;;;;;8.63;4.68;;;14.00;74.80;;;;;;5072933;28;20036;-59
2023/05/10 09:11:12;;;;;;;8.02;4.05;;;14.10;77.30;;;;;;5091424;28;20513;-57
2023/05/10 09:13:39;;;;;;;4.85;3.78;;;14.10;74.30;;;;;;5090981;28;20039;-58
2023/05/10 09:16:05;;;;;;;18.27;5.07;;;14.30;64.20;;;;;;5091134;28;20032;-58
2023/05/10 09:18:30;;;;;;;4.90;4.15;;;14.40;68.80;;;;;;5090971;28;20070;-58
2023/05/10 09:20:56;;;;;;;5.25;3.67;;;14.40;68.50;;;;;;5090940;28;20055;-57
2023/05/10 09:23:22;;;;;;;7.85;4.03;;;14.30;70.70;;;;;;5091076;28;20024;-58
2023/05/10 09:25:47;;;;;;;7.70;4.22;;;14.30;75.10;;;;;;5090798;28;20536;-56
2023/05/10 09:28:13;;;;;;;4.47;4.03;;;14.10;75.40;;;;;;5090938;28;20067;-58
2023/05/10 09:30:39;;;;;;;4.82;3.55;;;14.10;71.50;;;;;;5072399;28;20024;-58
2023/05/10 09:33:05;;;;;;;6.72;4.80;;;14.00;83.80;;;;;;5072714;28;20074;-58
2023/05/10 09:35:32;;;;;;;4.60;3.88;;;14.20;91.60;;;;;;5090803;28;20023;-56
2023/05/10 09:38:02;;;;;;;4.03;3.70;;;14.50;76.60;;;;;;5090764;28;20402;-58
2023/05/10 09:40:29;;;;;;;3.85;2.75;;;14.50;80.50;;;;;;5090432;28;20039;-52
2023/05/10 09:43:00;;;;;;;2.95;2.65;;;14.40;80.90;;;;;;5090681;28;20016;-59
2023/05/10 09:45:35;;;;;;;4.38;2.80;;;14.60;90.30;;;;;;5089683;28;20020;-59
2023/05/10 09:48:02;;;;;;;4.57;3.72;;;14.70;84.90;;;;;;5090437;28;20022;-57
2023/05/10 09:50:29;;;;;;;5.93;2.95;;;14.70;72.60;;;;;;5090322;28;20036;-57
2023/05/10 09:52:58;;;;;;;6.40;3.60;;;14.50;77.20;;;;;;5090543;28;20107;-59
2023/05/10 09:55:40;;;;;;;4.80;3.95;;;14.20;85.40;;;;;;5089690;28;20028;-58
2023/05/10 09:58:09;;;;;;;5.10;3.33;;;14.00;90.90;;;;;;5072365;28;20024;-59
2023/05/10 10:00:40;;;;;;;7.72;3.47;;;14.20;92.30;;;;;;5089942;28;20031;-59
2023/05/10 10:03:13;;;;;;;3.70;2.13;;;14.30;90.30;;;;;;5090565;28;20028;-59
2023/05/10 10:05:41;;;;;;;4.43;2.20;;;14.50;91.70;;;;;;5090401;28;20035;-59
2023/05/10 10:08:07;;;;;;;1.30;1.20;;;14.70;91.50;;;;;;5090125;28;20040;-59
2023/05/10 10:10:44;;;;;;;1.30;1.20;;;14.80;86.70;;;;;;5090310;28;20067;-59
2023/05/10 10:13:09;;;;;;;1.42;1.30;;;14.70;79.80;;;;;;5090551;28;20020;-58
2023/05/10 10:15:36;;;;;;;2.40;1.40;;;14.60;85.50;;;;;;5090607;28;20028;-59
2023/05/10 10:18:03;;;;;;;2.33;1.50;;;14.50;87.10;;;;;;5089989;28;20030;-59
2023/05/10 10:20:29;;;;;;;1.45;1.35;;;14.40;88.00;;;;;;5089959;28;20266;-58
2023/05/10 10:22:55;;;;;;;1.40;1.30;;;14.20;86.60;;;;;;5072110;28;20201;-59
2023/05/10 10:25:22;;;;;;;1.40;1.30;;;14.10;87.30;;;;;;5072066;28;20074;-57
2023/05/10 10:27:53;;;;;;;4.65;1.50;;;14.10;90.90;;;;;;5060665;28;20028;-56
2023/05/10 10:30:22;;;;;;;1.30;1.20;;;14.20;92.50;;;;;;5040598;28;20028;-59
2023/05/10 10:33:11;;;;;;;1.70;1.00;;;14.40;88.60;;;;;;5058750;28;20078;-58
2023/05/10 10:35:37;;;;;;;5.25;2.28;;;14.50;84.20;;;;;;5059372;28;20024;-58
2023/05/10 10:38:03;;;;;;;1.58;1.45;;;14.60;83.80;;;;;;5059734;28;20056;-58
2023/05/10 10:40:33;;;;;;;1.77;1.38;;;14.80;89.40;;;;;;5058390;28;20091;-58
2023/05/10 10:43:36;;;;;;;3.10;1.55;;;14.80;80.90;;;;;;5058721;28;20032;-59
2023/05/10 10:46:21;;;;;;;1.70;1.50;;;14.90;85.60;;;;;;5057977;28;20048;-58
2023/05/10 10:48:49;;;;;;;1.90;1.80;;;14.90;77.50;;;;;;5058273;28;20040;-56
2023/05/10 10:51:15;;;;;;;1.58;1.40;;;14.90;82.90;;;;;;5058374;28;20531;-58
2023/05/10 10:53:41;;;;;;;2.00;1.80;;;14.80;77.40;;;;;;5057899;28;20124;-58
2023/05/10 10:56:11;;;;;;;3.55;2.35;;;14.50;86.50;;;;;;5041141;28;20115;-58
2023/05/10 10:58:40;;;;;;;3.05;2.28;;;14.30;90.50;;;;;;5058693;28;20033;-58
2023/05/10 11:01:33;;;;;;;5.80;2.42;;;14.10;92.30;;;;;;5060133;28;20070;-58
2023/05/10 11:03:58;;;;;;;4.10;2.05;;;13.90;88.30;;;;;;5058618;28;20120;-58
2023/05/10 11:06:35;;;;;;;1.33;0.80;;;13.80;88.60;;;;;;5040457;28;20157;-58
2023/05/10 11:09:08;;;;;;;2.75;1.10;;;13.80;72.40;;;;;;5060767;28;20032;-58
2023/05/10 11:11:49;;;;;;;9.80;4.73;;;13.60;79.90;;;;;;5063230;28;20136;-60
2023/05/10 11:14:19;;;;;;;6.45;1.38;;;13.50;86.70;;;;;;5060459;28;20801;-58
2023/05/10 11:16:45;;;;;;;4.88;1.45;;;13.50;90.60;;;;;;5058832;28;20043;-58
2023/05/10 11:19:12;;;;;;;2.22;0.93;;;13.60;91.80;;;;;;5107151;28;20035;-57
2023/05/10 11:22:04;;;;;;;1.55;1.20;;;13.60;88.70;;;;;;5112517;28;20065;-58
2023/05/10 11:24:30;;;;;;;1.80;1.00;;;13.70;91.40;;;;;;5066709;28;20466;-56
2023/05/10 11:26:56;;;;;;;1.42;1.00;;;13.90;91.60;;;;;;5109236;28;20290;-58
2023/05/10 11:29:22;;;;;;;1.20;1.10;;;14.00;90.60;;;;;;5112253;28;20323;-58
2023/05/10 11:31:48;;;;;;;2.50;2.20;;;14.30;86.30;;;;;;5112927;28;20481;-58
2023/05/10 11:34:47;;;;;;;2.78;2.08;;;14.40;80.30;;;;;;5112123;28;20023;-58
2023/05/10 11:37:13;;;;;;;1.90;1.75;;;14.50;77.60;;;;;;5097852;28;20042;-58
2023/05/10 11:39:38;;;;;;;2.03;1.33;;;14.60;62.20;;;;;;5112797;28;20126;-58
2023/05/10 11:42:05;;;;;;;1.65;1.10;;;14.70;68.50;;;;;;5113276;28;20024;-58
2023/05/10 11:44:36;;;;;;;1.98;1.52;;;14.50;75.80;;;;;;5113118;28;20023;-58
2023/05/10 11:47:02;;;;;;;0.98;0.98;;;14.60;73.90;;;;;;5113299;28;20509;-56
2023/05/10 11:49:27;;;;;;;2.50;1.73;;;14.60;65.20;;;;;;5113399;28;20027;-57
2023/05/10 11:52:03;;;;;;;2.40;1.48;;;14.60;69.20;;;;;;5112165;28;20034;-56
2023/05/10 11:54:28;;;;;;;0.93;0.93;;;14.60;65.00;;;;;;5112687;28;20070;-57
2023/05/10 11:56:54;;;;;;;5.55;0.95;;;14.60;67.90;;;;;;5107816;28;20470;-56
2023/05/10 11:59:20;;;;;;;0.80;0.80;;;14.60;67.50;;;;;;5091585;28;20475;-56
2023/05/10 12:01:45;;;;;;;0.88;0.88;;;14.80;64.00;;;;;;5100900;28;20031;-56
2023/05/10 12:04:11;;;;;;;1.48;1.20;;;14.90;46.80;;;;;;5112549;28;20024;-57
2023/05/10 12:06:40;;;;;;;1.88;1.30;;;15.00;55.70;;;;;;5112126;28;20096;-55
2023/05/10 12:09:07;;;;;;;1.05;0.93;;;15.10;56.50;;;;;;5112665;28;20047;-57
2023/05/10 12:11:37;;;;;;;0.90;0.90;;;15.40;44.30;;;;;;5112416;28;20497;-58
2023/05/10 12:14:04;;;;;;;0.73;0.73;;;15.40;53.60;;;;;;5107751;28;20697;-57
2023/05/10 12:16:30;;;;;;;1.60;1.50;;;15.70;53.50;;;;;;5092067;28;20070;-57
2023/05/10 12:18:58;;;;;;;6.25;2.40;;;15.90;21.10;;;;;;5091790;28;20387;-57
2023/05/10 12:21:23;;;;;;;1.60;1.50;;;15.90;13.60;;;;;;5091951;28;20024;-58
2023/05/10 12:23:55;;;;;;;1.10;1.00;;;16.10;12.20;;;;;;5091886;28;20031;-55
2023/05/10 12:26:26;;;;;;;1.67;1.58;;;16.10;26.20;;;;;;5092016;28;20032;-57
2023/05/10 12:28:52;;;;;;;1.00;1.00;;;16.10;42.70;;;;;;5092319;28;20046;-58
2023/05/10 12:31:18;;;;;;;1.77;1.38;;;16.30;2.70;;;;;;5091116;28;20075;-56
2023/05/10 12:33:45;;;;;;;2.35;1.50;;;16.40;9.40;;;;;;5091748;28;20038;-58
2023/05/10 12:36:15;;;;;;;1.30;1.30;;;16.30;9.70;;;;;;5091819;28;20093;-58
2023/05/10 12:38:48;;;;;;;3.03;1.70;;;16.10;1.00;;;;;;5091373;28;20040;-58
2023/05/10 12:41:16;;;;;;;1.55;1.45;;;16.20;25.40;;;;;;5091548;28;20023;-58
2023/05/10 12:43:42;;;;;;;1.70;1.40;;;16.30;16.90;;;;;;5091283;28;20495;-56
2023/05/10 12:46:13;;;;;;;1.50;1.00;;;16.20;1.00;;;;;;5091557;28;20024;-58
2023/05/10 12:48:40;;;;;;;0.90;0.90;;;16.10;1.00;;;;;;5091011;28;20020;-58